createdAt,value
2018-03-26T00:00:44.315Z,6.40
2018-03-26T00:01:44.308Z,6.20
2018-03-26T00:02:44.305Z,7.30
2018-03-26T00:03:44.328Z,6.50
2018-03-26T00:04:44.326Z,6.30
2018-03-26T00:05:44.293Z,6.20
2018-03-26T00:06:44.301Z,6.00
2018-03-26T00:07:44.299Z,6.60
2018-03-26T00:08:44.295Z,6.40
2018-03-26T00:09:44.289Z,6.20
2018-03-26T00:10:44.288Z,6.20
2018-03-26T00:11:44.283Z,7.10
2018-03-26T00:12:44.282Z,5.80
2018-03-26T00:13:44.297Z,6.60
2018-03-26T00:14:44.279Z,6.90
2018-03-26T00:15:44.267Z,5.90
2018-03-26T00:16:44.286Z,6.40
2018-03-26T00:17:44.267Z,6.30
2018-03-26T00:18:44.279Z,6.90
2018-03-26T00:19:44.257Z,6.40
2018-03-26T00:20:44.259Z,6.50
2018-03-26T00:21:44.253Z,6.70
2018-03-26T00:22:44.248Z,7.50
2018-03-26T00:23:44.239Z,7.50
2018-03-26T00:24:44.262Z,6.60
2018-03-26T00:25:44.233Z,7.30
2018-03-26T00:26:44.235Z,6.80
2018-03-26T00:27:44.222Z,7.00
2018-03-26T00:28:44.224Z,6.70
2018-03-26T00:29:44.224Z,7.30
2018-03-26T00:30:44.221Z,7.40
2018-03-26T00:31:44.220Z,6.70
2018-03-26T00:32:44.206Z,7.30
2018-03-26T00:33:44.224Z,7.00
2018-03-26T00:34:44.220Z,7.10
2018-03-26T00:35:44.201Z,7.10
2018-03-26T00:36:44.192Z,7.10
2018-03-26T00:37:44.198Z,7.30
2018-03-26T00:38:44.193Z,7.50
2018-03-26T00:39:44.187Z,7.60
2018-03-26T00:40:44.186Z,7.40
2018-03-26T00:41:44.183Z,7.80
2018-03-26T00:42:44.179Z,7.80
2018-03-26T00:43:44.175Z,8.00
2018-03-26T00:44:44.174Z,7.40
2018-03-26T00:45:44.170Z,7.50
2018-03-26T00:46:44.167Z,8.00
2018-03-26T00:47:44.159Z,8.00
2018-03-26T00:48:44.175Z,7.70
2018-03-26T00:49:44.164Z,7.50
2018-03-26T00:50:44.168Z,7.80
2018-03-26T00:51:44.146Z,7.50
2018-03-26T00:52:44.159Z,7.60
2018-03-26T00:53:44.141Z,7.80
2018-03-26T00:54:44.139Z,7.40
2018-03-26T00:55:44.150Z,7.00
2018-03-26T00:56:44.150Z,7.50
2018-03-26T00:57:44.146Z,6.80
2018-03-26T00:58:44.114Z,8.10
2018-03-26T00:59:44.121Z,7.80
2018-03-26T01:00:44.108Z,7.30
2018-03-26T01:01:44.110Z,7.30
2018-03-26T01:02:44.125Z,7.40
2018-03-26T01:03:44.122Z,7.50
2018-03-26T01:04:44.103Z,6.90
2018-03-26T01:05:44.098Z,7.80
2018-03-26T01:06:44.110Z,7.40
2018-03-26T01:07:44.082Z,8.30
2018-03-26T01:08:44.087Z,7.40
2018-03-26T01:09:44.098Z,7.20
2018-03-26T01:10:44.086Z,7.60
2018-03-26T01:11:44.071Z,7.90
2018-03-26T01:12:44.069Z,7.70
2018-03-26T01:13:44.064Z,7.20
2018-03-26T01:14:44.071Z,7.30
2018-03-26T01:15:44.062Z,7.90
2018-03-26T01:16:44.059Z,7.40
2018-03-26T01:17:44.065Z,7.10
2018-03-26T01:18:44.050Z,7.30
2018-03-26T01:19:44.043Z,7.50
2018-03-26T01:20:44.043Z,7.10
2018-03-26T01:21:44.049Z,7.30
2018-03-26T01:22:44.031Z,6.80
2018-03-26T01:23:44.035Z,7.80
2018-03-26T01:24:44.020Z,8.00
2018-03-26T01:25:44.045Z,7.30
2018-03-26T01:26:44.038Z,8.20
2018-03-26T01:27:44.019Z,8.30
2018-03-26T01:28:44.021Z,8.40
2018-03-26T01:29:44.001Z,7.90
2018-03-26T01:30:44.007Z,7.90
2018-03-26T01:31:44.005Z,7.80
2018-03-26T01:32:44.000Z,8.40
2018-03-26T01:33:43.996Z,7.90
2018-03-26T01:34:43.991Z,8.60
2018-03-26T01:35:43.987Z,7.80
2018-03-26T01:36:44.001Z,8.00
2018-03-26T01:37:43.979Z,8.40
2018-03-26T01:38:43.994Z,8.50
2018-03-26T01:39:43.969Z,8.50
2018-03-26T01:40:43.963Z,8.10
2018-03-26T01:41:43.966Z,7.70
2018-03-26T01:42:43.956Z,8.40
2018-03-26T01:43:43.961Z,8.30
2018-03-26T01:44:43.956Z,9.20
2018-03-26T01:45:43.951Z,8.80
2018-03-26T01:46:43.951Z,9.10
2018-03-26T01:47:43.935Z,8.60
2018-03-26T01:48:43.932Z,9.00
2018-03-26T01:49:43.937Z,9.20
2018-03-26T01:50:43.930Z,8.60
2018-03-26T01:51:43.927Z,8.80
2018-03-26T01:52:43.927Z,9.40
2018-03-26T01:53:43.935Z,8.90
2018-03-26T01:54:43.920Z,8.70
2018-03-26T01:55:43.918Z,8.70
2018-03-26T01:56:43.913Z,9.20
2018-03-26T01:57:43.923Z,9.80
2018-03-26T01:58:43.903Z,10.00
2018-03-26T01:59:43.923Z,9.60
2018-03-26T02:00:43.918Z,8.80
2018-03-26T02:01:43.909Z,9.90
2018-03-26T02:02:43.889Z,10.20
2018-03-26T02:03:43.886Z,10.30
2018-03-26T02:04:43.920Z,9.90
2018-03-26T02:05:43.882Z,10.10
2018-03-26T02:06:43.878Z,11.40
2018-03-26T02:07:43.868Z,10.60
2018-03-26T02:08:43.874Z,10.70
2018-03-26T02:09:43.870Z,11.40
2018-03-26T02:10:43.866Z,10.60
2018-03-26T02:11:43.862Z,11.10
2018-03-26T02:12:43.859Z,11.80
2018-03-26T02:13:43.850Z,10.70
2018-03-26T02:14:43.852Z,11.00
2018-03-26T02:15:43.861Z,11.40
2018-03-26T02:16:43.841Z,11.00
2018-03-26T02:17:43.858Z,10.70
2018-03-26T02:18:43.837Z,11.00
2018-03-26T02:19:43.835Z,11.60
2018-03-26T02:20:43.824Z,11.80
2018-03-26T02:21:43.845Z,12.10
2018-03-26T02:22:43.823Z,12.20
2018-03-26T02:23:43.822Z,11.80
2018-03-26T02:24:43.806Z,12.00
2018-03-26T02:25:43.807Z,11.90
2018-03-26T02:26:43.852Z,12.20
2018-03-26T02:27:43.811Z,12.40
2018-03-26T02:28:43.800Z,12.30
2018-03-26T02:29:43.809Z,12.70
2018-03-26T02:30:43.795Z,11.90
2018-03-26T02:31:43.807Z,12.50
2018-03-26T02:32:43.788Z,12.50
2018-03-26T02:33:43.774Z,13.90
2018-03-26T02:34:43.780Z,12.10
2018-03-26T02:35:43.778Z,13.00
2018-03-26T02:36:43.780Z,12.50
2018-03-26T02:37:43.770Z,12.30
2018-03-26T02:38:43.767Z,12.80
2018-03-26T02:39:43.757Z,13.00
2018-03-26T02:40:43.750Z,13.00
2018-03-26T02:41:43.761Z,12.70
2018-03-26T02:42:43.752Z,12.90
2018-03-26T02:43:43.744Z,12.20
2018-03-26T02:44:43.743Z,12.00
2018-03-26T02:45:43.731Z,12.40
2018-03-26T02:46:43.727Z,12.70
2018-03-26T02:47:43.744Z,12.00
2018-03-26T02:48:43.730Z,12.20
2018-03-26T02:49:43.741Z,12.80
2018-03-26T02:50:43.770Z,12.80
2018-03-26T02:51:43.708Z,12.70
2018-03-26T02:52:43.714Z,12.70
2018-03-26T02:53:43.710Z,12.00
2018-03-26T02:54:43.708Z,12.00
2018-03-26T02:55:43.720Z,12.60
2018-03-26T02:56:43.702Z,13.10
2018-03-26T02:57:43.696Z,12.20
2018-03-26T02:58:43.692Z,12.50
2018-03-26T02:59:43.705Z,12.40
2018-03-26T03:00:43.703Z,12.70
2018-03-26T03:01:43.672Z,12.60
2018-03-26T03:02:43.693Z,13.10
2018-03-26T03:03:43.777Z,12.30
2018-03-26T03:04:43.678Z,12.90
2018-03-26T03:05:43.679Z,13.00
2018-03-26T03:06:43.670Z,13.40
2018-03-26T03:07:43.677Z,13.50
2018-03-26T03:08:43.647Z,13.10
2018-03-26T03:09:43.651Z,12.10
2018-03-26T03:10:43.651Z,12.60
2018-03-26T03:11:43.663Z,13.70
2018-03-26T03:12:43.631Z,12.90
2018-03-26T03:13:43.655Z,13.40
2018-03-26T03:14:43.647Z,13.00
2018-03-26T03:15:43.678Z,13.30
2018-03-26T03:16:43.627Z,13.10
2018-03-26T03:17:43.636Z,12.00
2018-03-26T03:18:43.628Z,12.70
2018-03-26T03:19:43.615Z,12.50
2018-03-26T03:20:43.603Z,11.10
2018-03-26T03:21:43.623Z,11.30
2018-03-26T03:22:43.623Z,12.00
2018-03-26T03:23:43.616Z,11.80
2018-03-26T03:24:43.595Z,11.80
2018-03-26T03:25:43.590Z,12.20
2018-03-26T03:26:43.589Z,12.90
2018-03-26T03:27:43.704Z,12.60
2018-03-26T03:28:43.597Z,13.60
2018-03-26T03:29:43.577Z,15.70
2018-03-26T03:30:43.582Z,16.50
2018-03-26T03:31:43.570Z,17.20
2018-03-26T03:32:43.565Z,17.20
2018-03-26T03:33:43.662Z,16.70
2018-03-26T03:34:43.553Z,16.80
2018-03-26T03:35:43.553Z,16.80
2018-03-26T03:36:43.551Z,15.80
2018-03-26T03:37:43.559Z,16.00
2018-03-26T03:38:43.546Z,15.40
2018-03-26T03:39:43.533Z,15.90
2018-03-26T03:40:43.542Z,15.80
2018-03-26T03:41:43.525Z,14.80
2018-03-26T03:42:43.539Z,15.60
2018-03-26T03:43:43.518Z,16.10
2018-03-26T03:44:43.508Z,16.00
2018-03-26T03:45:43.514Z,16.70
2018-03-26T03:46:43.510Z,17.30
2018-03-26T03:47:43.498Z,17.20
2018-03-26T03:48:43.501Z,17.90
2018-03-26T03:49:43.516Z,17.20
2018-03-26T03:50:43.503Z,17.00
2018-03-26T03:51:43.494Z,16.40
2018-03-26T03:52:43.488Z,16.30
2018-03-26T03:53:43.473Z,16.00
2018-03-26T03:54:43.479Z,16.30
2018-03-26T03:55:43.475Z,17.30
2018-03-26T03:56:43.467Z,17.70
2018-03-26T03:57:43.468Z,16.50
2018-03-26T03:58:43.465Z,16.40
2018-03-26T03:59:43.458Z,16.70
2018-03-26T04:00:43.455Z,16.80
2018-03-26T04:01:43.450Z,17.00
2018-03-26T04:02:43.448Z,16.30
2018-03-26T04:03:43.443Z,16.80
2018-03-26T04:04:43.439Z,16.10
2018-03-26T04:05:43.430Z,16.50
2018-03-26T04:06:43.421Z,16.60
2018-03-26T04:07:43.424Z,17.40
2018-03-26T04:08:43.419Z,17.10
2018-03-26T04:09:43.416Z,16.00
2018-03-26T04:10:43.415Z,16.80
2018-03-26T04:11:43.412Z,15.90
2018-03-26T04:12:43.408Z,17.30
2018-03-26T04:13:43.404Z,16.50
2018-03-26T04:14:43.401Z,16.00
2018-03-26T04:15:43.396Z,16.30
2018-03-26T04:16:43.392Z,16.60
2018-03-26T04:17:43.389Z,16.10
2018-03-26T04:18:43.381Z,15.70
2018-03-26T04:19:43.378Z,15.70
2018-03-26T04:20:43.368Z,16.50
2018-03-26T04:21:43.363Z,15.80
2018-03-26T04:22:43.368Z,16.40
2018-03-26T04:23:43.364Z,15.30
2018-03-26T04:24:43.360Z,16.00
2018-03-26T04:25:43.362Z,15.10
2018-03-26T04:26:43.353Z,15.20
2018-03-26T04:27:43.446Z,15.20
2018-03-26T04:28:43.345Z,15.20
2018-03-26T04:29:43.342Z,14.50
2018-03-26T04:30:43.334Z,13.40
2018-03-26T04:31:43.336Z,14.60
2018-03-26T04:32:43.330Z,13.90
2018-03-26T04:33:43.324Z,13.80
2018-03-26T04:34:43.317Z,14.10
2018-03-26T04:35:43.317Z,13.90
2018-03-26T04:36:43.305Z,13.70
2018-03-26T04:37:43.309Z,14.10
2018-03-26T04:38:43.300Z,13.10
2018-03-26T04:39:43.299Z,13.70
2018-03-26T04:40:43.304Z,14.70
2018-03-26T04:41:43.299Z,13.70
2018-03-26T04:42:43.287Z,15.00
2018-03-26T04:43:43.301Z,15.50
2018-03-26T04:44:43.271Z,14.10
2018-03-26T04:45:43.277Z,14.70
2018-03-26T04:46:43.284Z,14.10
2018-03-26T04:47:43.259Z,14.20
2018-03-26T04:48:43.260Z,13.40
2018-03-26T04:49:43.266Z,14.90
2018-03-26T04:50:43.244Z,13.60
2018-03-26T04:51:43.250Z,13.50
2018-03-26T04:52:43.248Z,13.70
2018-03-26T04:53:43.241Z,13.70
2018-03-26T04:54:43.238Z,14.00
2018-03-26T04:55:43.225Z,13.70
2018-03-26T04:56:43.239Z,15.40
2018-03-26T04:57:43.322Z,15.70
2018-03-26T04:58:43.217Z,14.80
2018-03-26T04:59:43.214Z,15.80
2018-03-26T05:00:43.213Z,15.60
2018-03-26T05:01:43.204Z,15.60
2018-03-26T05:02:43.204Z,15.50
2018-03-26T05:03:43.197Z,15.40
2018-03-26T05:04:43.193Z,15.40
2018-03-26T05:05:43.182Z,16.40
2018-03-26T05:06:43.203Z,16.30
2018-03-26T05:07:43.195Z,15.30
2018-03-26T05:08:43.191Z,15.40
2018-03-26T05:09:43.271Z,15.30
2018-03-26T05:10:43.167Z,15.20
2018-03-26T05:11:43.165Z,16.20
2018-03-26T05:12:43.176Z,16.10
2018-03-26T05:13:43.164Z,16.50
2018-03-26T05:14:43.165Z,14.50
2018-03-26T05:15:43.161Z,16.10
2018-03-26T05:16:43.163Z,16.00
2018-03-26T05:17:43.131Z,16.10
2018-03-26T05:18:43.149Z,16.70
2018-03-26T05:19:43.129Z,16.50
2018-03-26T05:20:43.125Z,16.30
2018-03-26T05:21:43.125Z,15.90
2018-03-26T05:22:43.114Z,17.00
2018-03-26T05:23:43.112Z,17.30
2018-03-26T05:24:43.108Z,15.70
2018-03-26T05:25:43.098Z,15.30
2018-03-26T05:26:43.093Z,15.30
2018-03-26T05:27:43.214Z,16.30
2018-03-26T05:28:43.110Z,15.80
2018-03-26T05:29:43.104Z,16.50
2018-03-26T05:30:43.101Z,16.00
2018-03-26T05:31:43.082Z,16.30
2018-03-26T05:32:43.083Z,14.90
2018-03-26T05:33:43.061Z,15.40
2018-03-26T05:34:43.082Z,16.20
2018-03-26T05:35:43.078Z,16.00
2018-03-26T05:36:43.065Z,15.70
2018-03-26T05:37:43.052Z,15.80
2018-03-26T05:38:43.065Z,15.50
2018-03-26T05:39:43.044Z,15.30
2018-03-26T05:40:43.052Z,15.90
2018-03-26T05:41:43.051Z,15.50
2018-03-26T05:42:43.021Z,14.80
2018-03-26T05:43:43.034Z,15.10
2018-03-26T05:44:43.041Z,16.00
2018-03-26T05:45:43.017Z,15.50
2018-03-26T05:46:43.011Z,15.30
2018-03-26T05:47:43.009Z,14.20
2018-03-26T05:48:43.014Z,16.00
2018-03-26T05:49:43.002Z,13.30
2018-03-26T05:50:42.996Z,13.80
2018-03-26T05:51:42.991Z,14.30
2018-03-26T05:52:43.006Z,13.20
2018-03-26T05:53:42.984Z,13.40
2018-03-26T05:54:42.978Z,12.70
2018-03-26T05:55:42.991Z,12.50
2018-03-26T05:56:42.983Z,14.10
2018-03-26T05:57:42.958Z,12.80
2018-03-26T05:58:42.958Z,12.00
2018-03-26T05:59:42.958Z,11.40
2018-03-26T06:00:42.969Z,11.40
2018-03-26T06:01:42.944Z,11.20
2018-03-26T06:02:42.962Z,11.40
2018-03-26T06:03:42.952Z,12.00
2018-03-26T06:04:42.951Z,11.70
2018-03-26T06:05:42.944Z,12.20
2018-03-26T06:06:42.926Z,11.70
2018-03-26T06:07:42.954Z,11.60
2018-03-26T06:08:42.937Z,12.90
2018-03-26T06:09:42.925Z,12.40
2018-03-26T06:10:42.919Z,12.50
2018-03-26T06:11:42.924Z,13.00
2018-03-26T06:12:42.891Z,14.10
2018-03-26T06:13:42.898Z,13.50
2018-03-26T06:14:42.890Z,14.90
2018-03-26T06:15:42.885Z,14.90
2018-03-26T06:16:42.904Z,15.00
2018-03-26T06:17:42.896Z,14.70
2018-03-26T06:18:42.891Z,15.10
2018-03-26T06:19:42.883Z,14.10
2018-03-26T06:20:42.869Z,14.10
2018-03-26T06:21:42.962Z,14.10
2018-03-26T06:22:42.873Z,15.20
2018-03-26T06:23:42.869Z,14.50
2018-03-26T06:24:42.868Z,13.70
2018-03-26T06:25:42.841Z,13.40
2018-03-26T06:26:42.840Z,14.50
2018-03-26T06:27:42.828Z,14.80
2018-03-26T06:28:42.839Z,14.90
2018-03-26T06:29:42.817Z,14.60
2018-03-26T06:30:42.897Z,14.60
2018-03-26T06:31:42.833Z,13.80
2018-03-26T06:32:42.834Z,13.90
2018-03-26T06:33:42.902Z,14.50
2018-03-26T06:34:42.831Z,13.40
2018-03-26T06:35:42.802Z,13.90
2018-03-26T06:36:42.815Z,13.60
2018-03-26T06:37:42.789Z,14.00
2018-03-26T06:38:42.788Z,13.70
2018-03-26T06:39:42.802Z,13.70
2018-03-26T06:40:42.781Z,13.50
2018-03-26T06:41:42.771Z,14.30
2018-03-26T06:42:42.761Z,13.80
2018-03-26T06:43:42.762Z,13.00
2018-03-26T06:44:42.758Z,13.60
2018-03-26T06:45:42.754Z,12.20
2018-03-26T06:46:42.781Z,12.10
2018-03-26T06:47:42.750Z,11.30
2018-03-26T06:48:42.735Z,10.70
2018-03-26T06:49:42.729Z,12.30
2018-03-26T06:50:42.731Z,12.50
2018-03-26T06:51:42.727Z,11.70
2018-03-26T06:52:42.727Z,10.80
2018-03-26T06:53:42.733Z,11.60
2018-03-26T06:54:42.714Z,11.00
2018-03-26T06:55:42.710Z,11.60
2018-03-26T06:56:42.748Z,10.30
2018-03-26T06:57:42.801Z,11.30
2018-03-26T06:58:42.711Z,11.00
2018-03-26T06:59:42.696Z,10.40
2018-03-26T07:00:42.691Z,10.20
2018-03-26T07:01:42.697Z,10.10
2018-03-26T07:02:42.681Z,9.40
2018-03-26T07:03:42.668Z,10.50
2018-03-26T07:04:42.673Z,9.50
2018-03-26T07:05:42.671Z,10.40
2018-03-26T07:06:42.663Z,9.50
2018-03-26T07:07:42.654Z,9.60
2018-03-26T07:08:42.655Z,9.70
2018-03-26T07:09:42.661Z,9.90
2018-03-26T07:10:42.662Z,9.30
2018-03-26T07:11:42.640Z,9.20
2018-03-26T07:12:42.648Z,9.90
2018-03-26T07:13:42.628Z,9.70
2018-03-26T07:14:42.629Z,9.40
2018-03-26T07:15:42.730Z,9.80
2018-03-26T07:16:42.618Z,9.30
2018-03-26T07:17:42.639Z,9.70
2018-03-26T07:18:42.605Z,9.90
2018-03-26T07:19:42.606Z,9.70
2018-03-26T07:20:42.601Z,10.20
2018-03-26T07:21:42.669Z,9.20
2018-03-26T07:22:42.590Z,9.00
2018-03-26T07:23:42.588Z,9.70
2018-03-26T07:24:42.577Z,9.60
2018-03-26T07:25:42.593Z,9.70
2018-03-26T07:26:42.573Z,9.40
2018-03-26T07:27:42.581Z,9.70
2018-03-26T07:28:42.563Z,9.00
2018-03-26T07:29:42.560Z,9.50
2018-03-26T07:30:42.552Z,8.70
2018-03-26T07:31:42.552Z,9.30
2018-03-26T07:32:42.609Z,8.30
2018-03-26T07:33:42.640Z,8.30
2018-03-26T07:34:42.539Z,7.70
2018-03-26T07:35:42.535Z,7.90
2018-03-26T07:36:42.528Z,9.00
2018-03-26T07:37:42.532Z,8.40
2018-03-26T07:38:42.514Z,8.80
2018-03-26T07:39:42.529Z,8.80
2018-03-26T07:40:42.515Z,8.30
2018-03-26T07:41:42.504Z,8.50
2018-03-26T07:42:42.496Z,8.70
2018-03-26T07:43:42.485Z,8.90
2018-03-26T07:44:42.486Z,8.50
2018-03-26T07:45:42.485Z,9.00
2018-03-26T07:46:42.497Z,9.00
2018-03-26T07:47:42.467Z,7.00
2018-03-26T07:48:42.490Z,6.50
2018-03-26T07:49:42.457Z,6.60
2018-03-26T07:50:42.477Z,6.00
2018-03-26T07:51:42.456Z,6.30
2018-03-26T07:52:42.464Z,6.50
2018-03-26T07:53:42.448Z,6.60
2018-03-26T07:54:42.432Z,7.00
2018-03-26T07:55:42.440Z,6.40
2018-03-26T07:56:42.435Z,6.30
2018-03-26T07:57:42.430Z,6.10
2018-03-26T07:58:42.420Z,6.30
2018-03-26T07:59:42.420Z,6.40
2018-03-26T08:00:42.407Z,6.60
2018-03-26T08:01:42.400Z,6.20
2018-03-26T08:02:42.417Z,6.50
2018-03-26T08:03:42.391Z,6.40
2018-03-26T08:04:42.397Z,6.60
2018-03-26T08:05:42.382Z,6.50
2018-03-26T08:06:42.381Z,6.60
2018-03-26T08:07:42.388Z,6.10
2018-03-26T08:08:42.380Z,6.30
2018-03-26T08:09:42.389Z,5.70
2018-03-26T08:10:42.368Z,6.20
2018-03-26T08:11:42.363Z,6.30
2018-03-26T08:12:42.366Z,6.60
2018-03-26T08:13:42.344Z,6.50
2018-03-26T08:14:42.340Z,6.30
2018-03-26T08:15:42.345Z,5.80
2018-03-26T08:16:42.348Z,6.10
2018-03-26T08:17:42.352Z,6.80
2018-03-26T08:18:42.331Z,6.50
2018-03-26T08:19:42.318Z,6.50
2018-03-26T08:20:42.335Z,6.10
2018-03-26T08:21:42.308Z,7.30
2018-03-26T08:22:42.312Z,7.20
2018-03-26T08:23:42.316Z,6.80
2018-03-26T08:24:42.305Z,6.30
2018-03-26T08:25:42.290Z,5.80
2018-03-26T08:26:42.296Z,6.40
2018-03-26T08:27:42.306Z,6.90
2018-03-26T08:28:42.275Z,6.50
2018-03-26T08:29:42.298Z,5.40
2018-03-26T08:30:42.284Z,6.00
2018-03-26T08:31:42.263Z,6.40
2018-03-26T08:32:42.270Z,6.90
2018-03-26T08:33:42.280Z,8.30
2018-03-26T08:34:42.257Z,8.50
2018-03-26T08:35:42.244Z,8.10
2018-03-26T08:36:42.253Z,8.80
2018-03-26T08:37:42.235Z,9.30
2018-03-26T08:38:42.258Z,9.90
2018-03-26T08:39:42.253Z,9.30
2018-03-26T08:40:42.222Z,8.60
2018-03-26T08:41:42.215Z,8.70
2018-03-26T08:42:42.239Z,8.80
2018-03-26T08:43:42.216Z,9.30
2018-03-26T08:44:42.230Z,8.70
2018-03-26T08:45:42.207Z,8.20
2018-03-26T08:46:42.202Z,9.10
2018-03-26T08:47:42.216Z,8.20
2018-03-26T08:48:42.197Z,9.20
2018-03-26T08:49:42.199Z,8.80
2018-03-26T08:50:42.192Z,9.40
2018-03-26T08:51:42.171Z,9.40
2018-03-26T08:52:42.168Z,9.20
2018-03-26T08:53:42.188Z,8.80
2018-03-26T08:54:42.167Z,9.30
2018-03-26T08:55:42.179Z,9.10
2018-03-26T08:56:42.158Z,9.50
2018-03-26T08:57:42.151Z,9.10
2018-03-26T08:58:42.157Z,9.70
2018-03-26T08:59:42.152Z,9.30
2018-03-26T09:00:42.138Z,9.40
2018-03-26T09:01:42.129Z,9.50
2018-03-26T09:02:42.129Z,9.40
2018-03-26T09:03:42.125Z,9.80
2018-03-26T09:04:42.119Z,9.80
2018-03-26T09:05:42.114Z,9.60
2018-03-26T09:06:42.111Z,10.60
2018-03-26T09:07:42.107Z,8.60
2018-03-26T09:08:42.119Z,9.40
2018-03-26T09:09:42.105Z,9.00
2018-03-26T09:10:42.113Z,8.00
2018-03-26T09:11:42.087Z,7.90
2018-03-26T09:12:42.072Z,7.30
2018-03-26T09:13:42.077Z,7.70
2018-03-26T09:14:42.091Z,7.40
2018-03-26T09:15:42.070Z,7.50
2018-03-26T09:16:42.058Z,7.80
2018-03-26T09:17:42.050Z,7.60
2018-03-26T09:18:42.055Z,7.30
2018-03-26T09:19:42.050Z,7.80
2018-03-26T09:20:42.064Z,8.20
2018-03-26T09:21:42.059Z,7.50
2018-03-26T09:22:42.055Z,6.80
2018-03-26T09:23:42.032Z,7.60
2018-03-26T09:24:42.027Z,6.60
2018-03-26T09:25:42.022Z,7.10
2018-03-26T09:26:42.007Z,8.80
2018-03-26T09:27:42.032Z,8.90
2018-03-26T09:28:42.027Z,8.90
2018-03-26T09:29:42.015Z,9.20
2018-03-26T09:30:41.989Z,10.40
2018-03-26T09:31:41.995Z,9.70
2018-03-26T09:32:42.008Z,9.00
2018-03-26T09:33:41.987Z,10.20
2018-03-26T09:34:41.981Z,9.30
2018-03-26T09:35:41.995Z,10.30
2018-03-26T09:36:41.965Z,9.50
2018-03-26T09:37:41.967Z,9.70
2018-03-26T09:38:41.983Z,9.80
2018-03-26T09:39:41.950Z,9.90
2018-03-26T09:40:41.965Z,10.00
2018-03-26T09:41:41.968Z,9.70
2018-03-26T09:42:41.944Z,9.80
2018-03-26T09:43:41.961Z,9.40
2018-03-26T09:44:41.944Z,10.00
2018-03-26T09:45:41.931Z,9.60
2018-03-26T09:46:41.928Z,8.80
2018-03-26T09:47:41.915Z,8.20
2018-03-26T09:48:41.909Z,8.30
2018-03-26T09:49:41.911Z,7.90
2018-03-26T09:50:41.897Z,8.00
2018-03-26T09:51:41.912Z,8.40
2018-03-26T09:52:41.899Z,8.00
2018-03-26T09:53:41.892Z,9.10
2018-03-26T09:54:41.889Z,8.90
2018-03-26T09:55:41.885Z,9.20
2018-03-26T09:56:41.872Z,8.30
2018-03-26T09:57:41.869Z,8.60
2018-03-26T09:58:41.870Z,8.40
2018-03-26T09:59:41.875Z,7.80
2018-03-26T10:00:41.861Z,8.10
2018-03-26T10:01:41.868Z,7.90
2018-03-26T10:02:41.870Z,8.10
2018-03-26T10:03:41.848Z,7.90
2018-03-26T10:04:41.835Z,7.90
2018-03-26T10:05:41.840Z,7.60
2018-03-26T10:06:41.835Z,7.70
2018-03-26T10:07:41.837Z,8.20
2018-03-26T10:08:41.818Z,8.20
2018-03-26T10:09:41.822Z,8.00
2018-03-26T10:10:41.825Z,7.90
2018-03-26T10:11:41.802Z,7.90
2018-03-26T10:12:41.809Z,8.10
2018-03-26T10:13:41.794Z,8.30
2018-03-26T10:14:41.800Z,8.40
2018-03-26T10:15:41.813Z,8.90
2018-03-26T10:16:41.782Z,8.50
2018-03-26T10:17:41.826Z,8.50
2018-03-26T10:18:41.782Z,8.90
2018-03-26T10:19:41.798Z,8.00
2018-03-26T10:20:41.763Z,7.70
2018-03-26T10:21:41.764Z,8.90
2018-03-26T10:22:41.767Z,8.60
2018-03-26T10:23:41.787Z,7.90
2018-03-26T10:24:41.756Z,8.20
2018-03-26T10:25:41.743Z,8.50
2018-03-26T10:26:41.764Z,8.20
2018-03-26T10:27:41.843Z,8.90
2018-03-26T10:28:41.729Z,8.10
2018-03-26T10:29:41.736Z,8.50
2018-03-26T10:30:41.729Z,8.10
2018-03-26T10:31:41.726Z,8.80
2018-03-26T10:32:41.720Z,8.60
2018-03-26T10:33:41.717Z,8.60
2018-03-26T10:34:41.703Z,8.20
2018-03-26T10:35:41.721Z,7.80
2018-03-26T10:36:41.722Z,7.70
2018-03-26T10:37:41.691Z,8.30
2018-03-26T10:38:41.721Z,8.30
2018-03-26T10:39:41.709Z,7.90
2018-03-26T10:40:41.688Z,8.10
2018-03-26T10:41:41.688Z,8.20
2018-03-26T10:42:41.669Z,9.20
2018-03-26T10:43:41.700Z,9.40
2018-03-26T10:44:41.673Z,8.60
2018-03-26T10:45:41.675Z,9.40
2018-03-26T10:46:41.673Z,8.40
2018-03-26T10:47:41.650Z,7.70
2018-03-26T10:48:41.656Z,8.50
2018-03-26T10:49:41.640Z,8.40
2018-03-26T10:50:41.665Z,8.00
2018-03-26T10:51:41.651Z,7.20
2018-03-26T10:52:41.657Z,7.80
2018-03-26T10:53:41.635Z,8.10
2018-03-26T10:54:41.637Z,8.20
2018-03-26T10:55:41.617Z,8.50
2018-03-26T10:57:41.618Z,8.50
2018-03-26T10:58:41.614Z,8.30
2018-03-26T10:59:41.611Z,9.50
2018-03-26T11:00:41.623Z,7.90
2018-03-26T11:01:41.609Z,8.80
2018-03-26T11:02:41.590Z,8.90
2018-03-26T11:03:41.596Z,8.20
2018-03-26T11:04:41.607Z,9.90
2018-03-26T11:05:41.611Z,10.70
2018-03-26T11:06:41.585Z,9.90
2018-03-26T11:07:41.584Z,10.40
2018-03-26T11:08:41.567Z,11.20
2018-03-26T11:09:41.570Z,11.50
2018-03-26T11:10:41.571Z,11.90
2018-03-26T11:11:41.566Z,11.30
2018-03-26T11:12:41.557Z,11.30
2018-03-26T11:13:41.556Z,10.90
2018-03-26T11:14:41.553Z,11.80
2018-03-26T11:15:41.545Z,10.50
2018-03-26T11:16:41.534Z,11.90
2018-03-26T11:17:41.537Z,11.30
2018-03-26T11:18:41.536Z,11.90
2018-03-26T11:19:41.549Z,11.90
2018-03-26T11:20:41.525Z,11.80
2018-03-26T11:21:41.527Z,12.30
2018-03-26T11:22:41.534Z,12.60
2018-03-26T11:23:41.524Z,12.80
2018-03-26T11:24:41.510Z,12.50
2018-03-26T11:25:41.501Z,13.50
2018-03-26T11:26:41.500Z,13.10
2018-03-26T11:27:41.502Z,11.40
2018-03-26T11:28:41.489Z,12.80
2018-03-26T11:29:41.489Z,11.80
2018-03-26T11:30:41.481Z,11.70
2018-03-26T11:31:41.477Z,11.00
2018-03-26T11:32:41.501Z,11.50
2018-03-26T11:33:41.490Z,12.10
2018-03-26T11:34:41.468Z,11.50
2018-03-26T11:35:41.468Z,11.50
2018-03-26T11:36:41.461Z,11.30
2018-03-26T11:37:41.459Z,11.80
2018-03-26T11:38:41.457Z,11.70
2018-03-26T11:39:41.452Z,11.60
2018-03-26T11:40:41.463Z,11.30
2018-03-26T11:41:41.464Z,11.10
2018-03-26T11:42:41.439Z,11.00
2018-03-26T11:43:41.455Z,10.90
2018-03-26T11:44:41.601Z,10.10
2018-03-26T11:45:41.429Z,11.30
2018-03-26T11:46:41.428Z,10.40
2018-03-26T11:47:41.420Z,10.80
2018-03-26T11:48:41.435Z,10.70
2018-03-26T11:49:41.454Z,10.80
2018-03-26T11:50:41.416Z,10.90
2018-03-26T11:51:41.420Z,10.40
2018-03-26T11:52:41.400Z,10.60
2018-03-26T11:53:41.415Z,10.30
2018-03-26T11:54:41.390Z,10.30
2018-03-26T11:55:41.403Z,9.80
2018-03-26T11:56:41.395Z,10.00
2018-03-26T11:57:41.389Z,10.20
2018-03-26T11:58:41.391Z,10.00
2018-03-26T11:59:41.384Z,9.50
2018-03-26T12:00:41.374Z,8.90
2018-03-26T12:01:41.373Z,10.10
2018-03-26T12:02:41.368Z,10.40
2018-03-26T12:03:41.357Z,9.90
2018-03-26T12:04:41.372Z,10.20
2018-03-26T12:05:41.364Z,9.20
2018-03-26T12:06:41.360Z,9.30
2018-03-26T12:07:41.459Z,10.90
2018-03-26T12:08:41.347Z,11.00
2018-03-26T12:09:41.354Z,10.50
2018-03-26T12:10:41.345Z,10.20
2018-03-26T12:11:41.323Z,10.30
2018-03-26T12:12:41.315Z,10.60
2018-03-26T12:13:41.330Z,10.90
2018-03-26T12:14:41.335Z,11.30
2018-03-26T12:15:41.309Z,10.50
2018-03-26T12:16:41.307Z,10.90
2018-03-26T12:17:41.319Z,10.20
2018-03-26T12:18:41.315Z,11.10
2018-03-26T12:19:41.312Z,11.50
2018-03-26T12:20:41.289Z,11.90
2018-03-26T12:21:41.305Z,11.10
2018-03-26T12:22:41.298Z,12.50
2018-03-26T12:23:48.262Z,12.00
2018-03-26T12:24:41.287Z,10.80
2018-03-26T12:25:41.282Z,10.90
2018-03-26T12:26:41.264Z,11.20
2018-03-26T12:27:41.265Z,11.30
2018-03-26T12:28:41.262Z,10.00
2018-03-26T12:29:41.253Z,9.90
2018-03-26T12:30:41.255Z,10.90
2018-03-26T12:31:41.246Z,9.60
2018-03-26T12:32:41.248Z,8.90
2018-03-26T12:33:41.266Z,9.80
2018-03-26T12:34:41.259Z,10.40
2018-03-26T12:35:41.255Z,9.70
2018-03-26T12:36:41.236Z,9.30
2018-03-26T12:37:41.232Z,9.70
2018-03-26T12:38:41.233Z,9.50
2018-03-26T12:39:41.226Z,10.20
2018-03-26T12:40:41.223Z,10.10
2018-03-26T12:41:41.222Z,10.60
2018-03-26T12:42:41.236Z,11.10
2018-03-26T12:43:41.206Z,11.50
2018-03-26T12:44:41.213Z,11.00
2018-03-26T12:45:41.209Z,10.60
2018-03-26T12:46:41.204Z,10.30
2018-03-26T12:47:41.205Z,9.10
2018-03-26T12:48:41.204Z,7.90
2018-03-26T12:49:41.214Z,6.40
2018-03-26T12:50:41.197Z,5.80
2018-03-26T12:51:41.184Z,5.70
2018-03-26T12:52:41.202Z,5.80
2018-03-26T12:53:41.191Z,5.80
2018-03-26T12:54:41.233Z,5.90
2018-03-26T12:55:41.183Z,5.90
2018-03-26T12:56:41.172Z,5.80
2018-03-26T12:57:41.180Z,5.90
2018-03-26T12:58:41.225Z,6.30
2018-03-26T12:59:41.173Z,5.40
2018-03-26T13:00:41.174Z,4.60
2018-03-26T13:01:41.187Z,4.80
2018-03-26T13:02:41.169Z,4.90
2018-03-26T13:03:41.178Z,5.00
2018-03-26T13:04:41.166Z,5.00
2018-03-26T13:05:41.174Z,5.00
2018-03-26T13:06:41.158Z,5.00